sensor_id;sensor_type;location;lat;lon;timestamp;P1;durP1;ratioP1;P2;durP2;ratioP2
8656;SDS011;4366;50.764;7.184;2023-05-03T00:02:06;3.50;;;3.20;;
8656;SDS011;4366;50.764;7.184;2023-05-03T00:07:09;3.80;;;3.50;;
8656;SDS011;4366;50.764;7.184;2023-05-03T00:12:10;3.60;;;3.30;;
8656;SDS011;4366;50.764;7.184;2023-05-03T00:17:12;4.97;;;3.97;;
8656;SDS011;4366;50.764;7.184;2023-05-03T00:22:14;3.63;;;3.33;;
8656;SDS011;4366;50.764;7.184;2023-05-03T00:27:16;3.83;;;3.53;;
8656;SDS011;4366;50.764;7.184;2023-05-03T00:32:20;3.43;;;3.13;;
8656;SDS011;4366;50.764;7.184;2023-05-03T00:37:25;3.43;;;3.20;;
8656;SDS011;4366;50.764;7.184;2023-05-03T00:42:27;5.33;;;3.50;;
8656;SDS011;4366;50.764;7.184;2023-05-03T00:47:29;4.43;;;3.50;;
8656;SDS011;4366;50.764;7.184;2023-05-03T00:52:31;4.60;;;3.27;;
8656;SDS011;4366;50.764;7.184;2023-05-03T00:57:33;4.00;;;3.70;;
8656;SDS011;4366;50.764;7.184;2023-05-03T01:02:35;4.00;;;3.70;;
8656;SDS011;4366;50.764;7.184;2023-05-03T01:13:06;3.93;;;3.60;;
8656;SDS011;4366;50.764;7.184;2023-05-03T01:18:33;3.83;;;3.53;;
8656;SDS011;4366;50.764;7.184;2023-05-03T01:23:58;3.70;;;3.40;;
8656;SDS011;4366;50.764;7.184;2023-05-03T01:29:07;4.53;;;3.77;;
8656;SDS011;4366;50.764;7.184;2023-05-03T01:39:23;4.40;;;4.00;;
8656;SDS011;4366;50.764;7.184;2023-05-03T01:44:26;6.80;;;3.97;;
8656;SDS011;4366;50.764;7.184;2023-05-03T01:49:28;4.53;;;4.23;;
8656;SDS011;4366;50.764;7.184;2023-05-03T01:54:30;4.27;;;3.87;;
8656;SDS011;4366;50.764;7.184;2023-05-03T01:59:31;4.07;;;3.70;;
8656;SDS011;4366;50.764;7.184;2023-05-03T02:04:34;4.00;;;3.70;;
8656;SDS011;4366;50.764;7.184;2023-05-03T02:09:35;4.53;;;3.70;;
8656;SDS011;4366;50.764;7.184;2023-05-03T02:14:37;3.77;;;3.47;;
8656;SDS011;4366;50.764;7.184;2023-05-03T02:19:39;4.30;;;3.90;;
8656;SDS011;4366;50.764;7.184;2023-05-03T02:24:41;3.90;;;3.60;;
8656;SDS011;4366;50.764;7.184;2023-05-03T02:29:43;4.23;;;3.93;;
8656;SDS011;4366;50.764;7.184;2023-05-03T02:34:46;4.23;;;3.83;;
8656;SDS011;4366;50.764;7.184;2023-05-03T02:39:53;4.20;;;3.90;;
8656;SDS011;4366;50.764;7.184;2023-05-03T02:44:55;5.07;;;3.70;;
8656;SDS011;4366;50.764;7.184;2023-05-03T02:49:58;4.60;;;3.87;;
8656;SDS011;4366;50.764;7.184;2023-05-03T02:55:00;3.77;;;3.30;;
8656;SDS011;4366;50.764;7.184;2023-05-03T03:00:02;3.80;;;3.40;;
8656;SDS011;4366;50.764;7.184;2023-05-03T03:05:06;5.33;;;3.60;;
8656;SDS011;4366;50.764;7.184;2023-05-03T03:10:09;4.70;;;3.30;;
8656;SDS011;4366;50.764;7.184;2023-05-03T03:15:11;4.63;;;3.90;;
8656;SDS011;4366;50.764;7.184;2023-05-03T03:20:13;4.10;;;3.80;;
8656;SDS011;4366;50.764;7.184;2023-05-03T03:25:19;5.40;;;4.60;;
8656;SDS011;4366;50.764;7.184;2023-05-03T03:30:22;4.40;;;3.63;;
8656;SDS011;4366;50.764;7.184;2023-05-03T03:35:33;4.37;;;3.90;;
8656;SDS011;4366;50.764;7.184;2023-05-03T03:40:36;4.77;;;4.37;;
8656;SDS011;4366;50.764;7.184;2023-05-03T03:45:39;4.07;;;3.73;;
8656;SDS011;4366;50.764;7.184;2023-05-03T03:50:41;4.17;;;3.87;;
8656;SDS011;4366;50.764;7.184;2023-05-03T03:55:44;3.73;;;3.43;;
8656;SDS011;4366;50.764;7.184;2023-05-03T04:00:49;4.13;;;3.77;;
8656;SDS011;4366;50.764;7.184;2023-05-03T04:05:56;4.27;;;3.87;;
8656;SDS011;4366;50.764;7.184;2023-05-03T04:11:01;4.07;;;3.77;;
8656;SDS011;4366;50.764;7.184;2023-05-03T04:16:07;5.43;;;4.37;;
8656;SDS011;4366;50.764;7.184;2023-05-03T04:21:10;4.50;;;4.10;;
8656;SDS011;4366;50.764;7.184;2023-05-03T04:26:14;5.30;;;4.00;;
8656;SDS011;4366;50.764;7.184;2023-05-03T04:31:36;9.17;;;4.57;;
8656;SDS011;4366;50.764;7.184;2023-05-03T04:36:39;4.97;;;4.43;;
8656;SDS011;4366;50.764;7.184;2023-05-03T04:41:45;5.03;;;4.30;;
8656;SDS011;4366;50.764;7.184;2023-05-03T04:46:47;4.63;;;4.10;;
8656;SDS011;4366;50.764;7.184;2023-05-03T04:51:51;4.60;;;4.17;;
8656;SDS011;4366;50.764;7.184;2023-05-03T04:56:56;4.43;;;3.83;;
8656;SDS011;4366;50.764;7.184;2023-05-03T05:01:58;4.47;;;3.87;;
8656;SDS011;4366;50.764;7.184;2023-05-03T05:07:00;4.67;;;4.13;;
8656;SDS011;4366;50.764;7.184;2023-05-03T05:12:04;4.37;;;3.93;;
8656;SDS011;4366;50.764;7.184;2023-05-03T05:17:11;3.77;;;3.23;;
8656;SDS011;4366;50.764;7.184;2023-05-03T05:22:15;4.47;;;3.93;;
8656;SDS011;4366;50.764;7.184;2023-05-03T05:27:23;4.13;;;3.73;;
8656;SDS011;4366;50.764;7.184;2023-05-03T05:32:27;4.93;;;3.60;;
8656;SDS011;4366;50.764;7.184;2023-05-03T05:37:30;4.83;;;3.57;;
8656;SDS011;4366;50.764;7.184;2023-05-03T05:42:35;3.73;;;3.43;;
8656;SDS011;4366;50.764;7.184;2023-05-03T05:47:37;3.90;;;3.50;;
8656;SDS011;4366;50.764;7.184;2023-05-03T05:52:39;4.30;;;3.13;;
8656;SDS011;4366;50.764;7.184;2023-05-03T05:57:43;3.47;;;3.17;;
8656;SDS011;4366;50.764;7.184;2023-05-03T06:02:45;5.67;;;3.23;;
8656;SDS011;4366;50.764;7.184;2023-05-03T06:07:51;3.77;;;3.43;;
8656;SDS011;4366;50.764;7.184;2023-05-03T06:12:57;3.97;;;3.07;;
8656;SDS011;4366;50.764;7.184;2023-05-03T06:18:01;3.30;;;3.00;;
8656;SDS011;4366;50.764;7.184;2023-05-03T06:23:05;3.60;;;2.63;;
8656;SDS011;4366;50.764;7.184;2023-05-03T06:28:07;2.80;;;2.60;;
8656;SDS011;4366;50.764;7.184;2023-05-03T06:33:11;3.17;;;2.50;;
8656;SDS011;4366;50.764;7.184;2023-05-03T06:38:16;2.90;;;2.70;;
8656;SDS011;4366;50.764;7.184;2023-05-03T06:43:18;2.80;;;2.60;;
8656;SDS011;4366;50.764;7.184;2023-05-03T06:48:33;3.23;;;2.47;;
8656;SDS011;4366;50.764;7.184;2023-05-03T06:53:35;2.37;;;2.17;;
8656;SDS011;4366;50.764;7.184;2023-05-03T06:58:37;2.87;;;2.67;;
8656;SDS011;4366;50.764;7.184;2023-05-03T07:08:43;3.43;;;2.50;;
8656;SDS011;4366;50.764;7.184;2023-05-03T07:13:45;2.40;;;2.20;;
8656;SDS011;4366;50.764;7.184;2023-05-03T07:18:47;4.10;;;2.20;;
8656;SDS011;4366;50.764;7.184;2023-05-03T07:29:01;2.50;;;2.10;;
8656;SDS011;4366;50.764;7.184;2023-05-03T07:34:20;2.10;;;1.97;;
8656;SDS011;4366;50.764;7.184;2023-05-03T07:39:22;2.27;;;2.03;;
8656;SDS011;4366;50.764;7.184;2023-05-03T07:44:27;2.13;;;1.80;;
8656;SDS011;4366;50.764;7.184;2023-05-03T07:49:38;2.20;;;2.10;;
8656;SDS011;4366;50.764;7.184;2023-05-03T07:54:40;1.93;;;1.80;;
8656;SDS011;4366;50.764;7.184;2023-05-03T07:59:43;2.80;;;2.10;;
8656;SDS011;4366;50.764;7.184;2023-05-03T08:04:45;2.03;;;1.93;;
8656;SDS011;4366;50.764;7.184;2023-05-03T08:09:47;2.50;;;2.30;;
8656;SDS011;4366;50.764;7.184;2023-05-03T08:14:50;2.33;;;2.07;;
8656;SDS011;4366;50.764;7.184;2023-05-03T08:19:54;1.97;;;1.87;;
8656;SDS011;4366;50.764;7.184;2023-05-03T08:24:58;2.50;;;2.20;;
8656;SDS011;4366;50.764;7.184;2023-05-03T08:30:01;2.67;;;2.00;;
8656;SDS011;4366;50.764;7.184;2023-05-03T08:35:04;1.93;;;1.83;;
8656;SDS011;4366;50.764;7.184;2023-05-03T08:40:08;2.63;;;2.10;;
8656;SDS011;4366;50.764;7.184;2023-05-03T08:45:13;3.97;;;2.30;;
8656;SDS011;4366;50.764;7.184;2023-05-03T09:01:29;2.40;;;2.20;;
8656;SDS011;4366;50.764;7.184;2023-05-03T09:06:30;1.70;;;1.60;;
8656;SDS011;4366;50.764;7.184;2023-05-03T09:11:36;1.80;;;1.70;;
8656;SDS011;4366;50.764;7.184;2023-05-03T09:16:39;2.27;;;2.07;;
8656;SDS011;4366;50.764;7.184;2023-05-03T09:21:42;2.07;;;1.87;;
8656;SDS011;4366;50.764;7.184;2023-05-03T09:26:46;2.30;;;2.00;;
8656;SDS011;4366;50.764;7.184;2023-05-03T09:31:56;2.10;;;1.70;;
8656;SDS011;4366;50.764;7.184;2023-05-03T09:37:01;1.97;;;1.87;;
8656;SDS011;4366;50.764;7.184;2023-05-03T09:42:10;1.70;;;1.60;;
8656;SDS011;4366;50.764;7.184;2023-05-03T09:47:18;2.03;;;1.70;;
8656;SDS011;4366;50.764;7.184;2023-05-03T09:52:22;1.70;;;1.60;;
8656;SDS011;4366;50.764;7.184;2023-05-03T09:57:24;2.43;;;2.23;;
8656;SDS011;4366;50.764;7.184;2023-05-03T10:02:26;5.13;;;2.10;;
8656;SDS011;4366;50.764;7.184;2023-05-03T10:07:28;1.67;;;1.57;;
8656;SDS011;4366;50.764;7.184;2023-05-03T10:12:30;3.43;;;1.90;;
8656;SDS011;4366;50.764;7.184;2023-05-03T10:17:35;1.73;;;1.63;;
8656;SDS011;4366;50.764;7.184;2023-05-03T10:28:09;2.37;;;1.73;;
8656;SDS011;4366;50.764;7.184;2023-05-03T10:38:16;1.63;;;1.53;;
8656;SDS011;4366;50.764;7.184;2023-05-03T10:48:32;1.70;;;1.60;;
8656;SDS011;4366;50.764;7.184;2023-05-03T10:53:34;2.77;;;1.83;;
8656;SDS011;4366;50.764;7.184;2023-05-03T10:58:41;1.60;;;1.50;;
8656;SDS011;4366;50.764;7.184;2023-05-03T11:03:45;1.73;;;1.63;;
8656;SDS011;4366;50.764;7.184;2023-05-03T11:08:50;2.00;;;1.90;;
8656;SDS011;4366;50.764;7.184;2023-05-03T11:13:52;1.80;;;1.63;;
8656;SDS011;4366;50.764;7.184;2023-05-03T11:18:55;1.70;;;1.60;;
8656;SDS011;4366;50.764;7.184;2023-05-03T11:23:57;1.60;;;1.50;;
8656;SDS011;4366;50.764;7.184;2023-05-03T11:28:59;1.90;;;1.70;;
8656;SDS011;4366;50.764;7.184;2023-05-03T11:34:01;2.00;;;1.57;;
8656;SDS011;4366;50.764;7.184;2023-05-03T11:39:02;1.70;;;1.60;;
8656;SDS011;4366;50.764;7.184;2023-05-03T11:44:07;1.60;;;1.50;;
8656;SDS011;4366;50.764;7.184;2023-05-03T11:49:18;1.70;;;1.60;;
8656;SDS011;4366;50.764;7.184;2023-05-03T11:54:21;1.97;;;1.67;;
8656;SDS011;4366;50.764;7.184;2023-05-03T11:59:34;1.50;;;1.40;;
8656;SDS011;4366;50.764;7.184;2023-05-03T12:04:42;1.63;;;1.30;;
8656;SDS011;4366;50.764;7.184;2023-05-03T12:09:46;1.60;;;1.50;;
8656;SDS011;4366;50.764;7.184;2023-05-03T12:15:08;2.23;;;1.80;;
8656;SDS011;4366;50.764;7.184;2023-05-03T12:20:18;1.20;;;1.20;;
8656;SDS011;4366;50.764;7.184;2023-05-03T12:25:24;1.67;;;1.50;;
8656;SDS011;4366;50.764;7.184;2023-05-03T12:30:32;1.17;;;1.17;;
8656;SDS011;4366;50.764;7.184;2023-05-03T12:35:34;1.23;;;1.23;;
8656;SDS011;4366;50.764;7.184;2023-05-03T12:40:40;1.33;;;1.30;;
8656;SDS011;4366;50.764;7.184;2023-05-03T12:45:45;1.13;;;1.13;;
8656;SDS011;4366;50.764;7.184;2023-05-03T12:51:04;1.10;;;1.10;;
8656;SDS011;4366;50.764;7.184;2023-05-03T12:56:09;1.43;;;1.00;;
8656;SDS011;4366;50.764;7.184;2023-05-03T13:01:14;1.20;;;1.20;;
8656;SDS011;4366;50.764;7.184;2023-05-03T13:06:37;1.60;;;1.50;;
8656;SDS011;4366;50.764;7.184;2023-05-03T13:11:43;1.17;;;1.17;;
8656;SDS011;4366;50.764;7.184;2023-05-03T13:16:49;1.77;;;1.63;;
8656;SDS011;4366;50.764;7.184;2023-05-03T13:21:51;1.30;;;1.30;;
8656;SDS011;4366;50.764;7.184;2023-05-03T13:26:53;1.43;;;1.37;;
8656;SDS011;4366;50.764;7.184;2023-05-03T13:31:55;1.70;;;1.30;;
8656;SDS011;4366;50.764;7.184;2023-05-03T13:36:56;2.47;;;0.90;;
8656;SDS011;4366;50.764;7.184;2023-05-03T13:41:58;1.47;;;1.30;;
8656;SDS011;4366;50.764;7.184;2023-05-03T13:47:00;1.13;;;1.03;;
8656;SDS011;4366;50.764;7.184;2023-05-03T13:52:15;0.90;;;0.90;;
8656;SDS011;4366;50.764;7.184;2023-05-03T13:57:16;1.10;;;1.10;;
8656;SDS011;4366;50.764;7.184;2023-05-03T14:02:18;0.83;;;0.83;;
8656;SDS011;4366;50.764;7.184;2023-05-03T14:07:20;1.00;;;1.00;;
8656;SDS011;4366;50.764;7.184;2023-05-03T14:12:22;1.17;;;1.17;;
8656;SDS011;4366;50.764;7.184;2023-05-03T14:17:27;1.37;;;1.30;;
8656;SDS011;4366;50.764;7.184;2023-05-03T14:22:29;0.90;;;0.90;;
8656;SDS011;4366;50.764;7.184;2023-05-03T14:27:33;1.30;;;1.20;;
8656;SDS011;4366;50.764;7.184;2023-05-03T14:32:35;1.90;;;1.30;;
8656;SDS011;4366;50.764;7.184;2023-05-03T14:37:37;1.20;;;1.10;;
8656;SDS011;4366;50.764;7.184;2023-05-03T14:42:39;0.93;;;0.83;;
8656;SDS011;4366;50.764;7.184;2023-05-03T14:47:41;0.93;;;0.87;;
8656;SDS011;4366;50.764;7.184;2023-05-03T14:52:43;1.07;;;1.03;;
8656;SDS011;4366;50.764;7.184;2023-05-03T14:57:44;0.87;;;0.87;;
8656;SDS011;4366;50.764;7.184;2023-05-03T15:02:49;0.93;;;0.83;;
8656;SDS011;4366;50.764;7.184;2023-05-03T15:07:53;1.07;;;1.00;;
8656;SDS011;4366;50.764;7.184;2023-05-03T15:12:54;0.73;;;0.73;;
8656;SDS011;4366;50.764;7.184;2023-05-03T15:17:57;1.70;;;0.80;;
8656;SDS011;4366;50.764;7.184;2023-05-03T15:22:59;1.00;;;1.00;;
8656;SDS011;4366;50.764;7.184;2023-05-03T15:28:01;2.07;;;0.97;;
8656;SDS011;4366;50.764;7.184;2023-05-03T15:33:04;0.60;;;0.60;;
8656;SDS011;4366;50.764;7.184;2023-05-03T15:38:07;1.87;;;1.03;;
8656;SDS011;4366;50.764;7.184;2023-05-03T15:43:09;1.00;;;1.00;;
8656;SDS011;4366;50.764;7.184;2023-05-03T15:48:11;1.13;;;1.03;;
8656;SDS011;4366;50.764;7.184;2023-05-03T15:53:13;1.10;;;0.93;;
8656;SDS011;4366;50.764;7.184;2023-05-03T15:58:15;1.60;;;1.17;;
8656;SDS011;4366;50.764;7.184;2023-05-03T16:03:19;1.00;;;0.90;;
8656;SDS011;4366;50.764;7.184;2023-05-03T16:08:22;0.97;;;0.97;;
8656;SDS011;4366;50.764;7.184;2023-05-03T16:13:24;1.13;;;1.00;;
8656;SDS011;4366;50.764;7.184;2023-05-03T16:18:25;0.70;;;0.70;;
8656;SDS011;4366;50.764;7.184;2023-05-03T16:23:27;0.87;;;0.87;;
8656;SDS011;4366;50.764;7.184;2023-05-03T16:28:29;0.87;;;0.87;;
8656;SDS011;4366;50.764;7.184;2023-05-03T16:33:30;0.80;;;0.77;;
8656;SDS011;4366;50.764;7.184;2023-05-03T16:38:32;1.57;;;1.47;;
8656;SDS011;4366;50.764;7.184;2023-05-03T16:43:34;0.60;;;0.60;;
8656;SDS011;4366;50.764;7.184;2023-05-03T16:48:36;2.13;;;0.93;;
8656;SDS011;4366;50.764;7.184;2023-05-03T16:53:38;2.23;;;0.70;;
8656;SDS011;4366;50.764;7.184;2023-05-03T16:58:39;1.33;;;1.00;;
8656;SDS011;4366;50.764;7.184;2023-05-03T17:03:41;0.63;;;0.63;;
8656;SDS011;4366;50.764;7.184;2023-05-03T17:08:43;0.90;;;0.90;;
8656;SDS011;4366;50.764;7.184;2023-05-03T17:13:45;1.73;;;1.20;;
8656;SDS011;4366;50.764;7.184;2023-05-03T17:18:48;1.53;;;0.80;;
8656;SDS011;4366;50.764;7.184;2023-05-03T17:23:49;0.80;;;0.80;;
8656;SDS011;4366;50.764;7.184;2023-05-03T17:28:51;1.00;;;0.90;;
8656;SDS011;4366;50.764;7.184;2023-05-03T17:33:53;1.03;;;1.03;;
8656;SDS011;4366;50.764;7.184;2023-05-03T17:38:55;0.87;;;0.87;;
8656;SDS011;4366;50.764;7.184;2023-05-03T17:43:57;1.00;;;0.90;;
8656;SDS011;4366;50.764;7.184;2023-05-03T17:48:58;0.90;;;0.90;;
8656;SDS011;4366;50.764;7.184;2023-05-03T17:54:00;1.33;;;0.80;;
8656;SDS011;4366;50.764;7.184;2023-05-03T17:59:28;1.30;;;1.07;;
8656;SDS011;4366;50.764;7.184;2023-05-03T18:04:29;2.50;;;1.00;;
8656;SDS011;4366;50.764;7.184;2023-05-03T18:09:31;1.53;;;0.70;;
8656;SDS011;4366;50.764;7.184;2023-05-03T18:14:34;0.87;;;0.83;;
8656;SDS011;4366;50.764;7.184;2023-05-03T18:19:37;0.60;;;0.60;;
8656;SDS011;4366;50.764;7.184;2023-05-03T18:24:38;0.83;;;0.60;;
8656;SDS011;4366;50.764;7.184;2023-05-03T18:29:40;1.03;;;0.83;;
8656;SDS011;4366;50.764;7.184;2023-05-03T18:34:42;0.63;;;0.63;;
8656;SDS011;4366;50.764;7.184;2023-05-03T18:39:46;0.63;;;0.63;;
8656;SDS011;4366;50.764;7.184;2023-05-03T18:44:48;0.93;;;0.93;;
8656;SDS011;4366;50.764;7.184;2023-05-03T18:49:50;0.70;;;0.70;;
8656;SDS011;4366;50.764;7.184;2023-05-03T18:54:53;0.80;;;0.80;;
8656;SDS011;4366;50.764;7.184;2023-05-03T18:59:55;0.90;;;0.90;;
8656;SDS011;4366;50.764;7.184;2023-05-03T19:05:02;0.73;;;0.73;;
8656;SDS011;4366;50.764;7.184;2023-05-03T19:10:04;1.30;;;1.20;;
8656;SDS011;4366;50.764;7.184;2023-05-03T19:15:07;2.30;;;1.20;;
8656;SDS011;4366;50.764;7.184;2023-05-03T19:20:09;1.27;;;0.93;;
8656;SDS011;4366;50.764;7.184;2023-05-03T19:25:12;1.00;;;1.00;;
8656;SDS011;4366;50.764;7.184;2023-05-03T19:30:15;0.90;;;0.90;;
8656;SDS011;4366;50.764;7.184;2023-05-03T19:35:17;0.80;;;0.80;;
8656;SDS011;4366;50.764;7.184;2023-05-03T19:40:20;1.00;;;1.00;;
8656;SDS011;4366;50.764;7.184;2023-05-03T19:45:23;2.03;;;1.53;;
8656;SDS011;4366;50.764;7.184;2023-05-03T19:50:25;0.90;;;0.90;;
8656;SDS011;4366;50.764;7.184;2023-05-03T19:55:27;2.87;;;1.23;;
8656;SDS011;4366;50.764;7.184;2023-05-03T20:00:29;1.67;;;1.40;;
8656;SDS011;4366;50.764;7.184;2023-05-03T20:05:30;1.10;;;1.10;;
8656;SDS011;4366;50.764;7.184;2023-05-03T20:10:32;1.83;;;1.60;;
8656;SDS011;4366;50.764;7.184;2023-05-03T20:15:36;1.17;;;1.17;;
8656;SDS011;4366;50.764;7.184;2023-05-03T20:20:38;1.97;;;1.43;;
8656;SDS011;4366;50.764;7.184;2023-05-03T20:25:40;1.63;;;1.40;;
8656;SDS011;4366;50.764;7.184;2023-05-03T20:30:41;2.10;;;1.50;;
8656;SDS011;4366;50.764;7.184;2023-05-03T20:35:43;1.30;;;1.20;;
8656;SDS011;4366;50.764;7.184;2023-05-03T20:40:45;1.10;;;1.00;;
8656;SDS011;4366;50.764;7.184;2023-05-03T20:45:46;1.17;;;1.17;;
8656;SDS011;4366;50.764;7.184;2023-05-03T20:50:48;1.70;;;1.60;;
8656;SDS011;4366;50.764;7.184;2023-05-03T20:55:53;1.43;;;1.33;;
8656;SDS011;4366;50.764;7.184;2023-05-03T21:00:56;1.20;;;1.20;;
8656;SDS011;4366;50.764;7.184;2023-05-03T21:05:58;1.57;;;1.47;;
8656;SDS011;4366;50.764;7.184;2023-05-03T21:11:00;1.40;;;1.30;;
8656;SDS011;4366;50.764;7.184;2023-05-03T21:16:02;1.37;;;1.27;;
8656;SDS011;4366;50.764;7.184;2023-05-03T21:21:05;1.37;;;1.27;;
8656;SDS011;4366;50.764;7.184;2023-05-03T21:26:07;1.30;;;1.20;;
8656;SDS011;4366;50.764;7.184;2023-05-03T21:31:09;1.20;;;1.20;;
8656;SDS011;4366;50.764;7.184;2023-05-03T21:36:11;1.50;;;1.40;;
8656;SDS011;4366;50.764;7.184;2023-05-03T21:41:13;1.30;;;1.20;;
8656;SDS011;4366;50.764;7.184;2023-05-03T21:46:14;1.10;;;1.10;;
8656;SDS011;4366;50.764;7.184;2023-05-03T21:51:19;1.30;;;1.30;;
8656;SDS011;4366;50.764;7.184;2023-05-03T21:56:22;1.23;;;1.17;;
8656;SDS011;4366;50.764;7.184;2023-05-03T22:01:24;1.40;;;1.40;;
8656;SDS011;4366;50.764;7.184;2023-05-03T22:06:26;1.50;;;1.50;;
8656;SDS011;4366;50.764;7.184;2023-05-03T22:11:27;1.57;;;1.43;;
8656;SDS011;4366;50.764;7.184;2023-05-03T22:16:29;3.60;;;1.87;;
8656;SDS011;4366;50.764;7.184;2023-05-03T22:21:31;1.30;;;1.20;;
8656;SDS011;4366;50.764;7.184;2023-05-03T22:26:33;2.87;;;2.60;;
8656;SDS011;4366;50.764;7.184;2023-05-03T22:31:34;2.20;;;2.03;;
8656;SDS011;4366;50.764;7.184;2023-05-03T22:36:36;1.30;;;1.30;;
8656;SDS011;4366;50.764;7.184;2023-05-03T22:41:38;1.17;;;1.17;;
8656;SDS011;4366;50.764;7.184;2023-05-03T22:46:40;1.43;;;1.43;;
8656;SDS011;4366;50.764;7.184;2023-05-03T22:51:42;1.37;;;1.30;;
8656;SDS011;4366;50.764;7.184;2023-05-03T22:56:43;1.37;;;1.33;;
8656;SDS011;4366;50.764;7.184;2023-05-03T23:01:45;1.43;;;1.27;;
8656;SDS011;4366;50.764;7.184;2023-05-03T23:06:50;1.90;;;1.80;;
8656;SDS011;4366;50.764;7.184;2023-05-03T23:11:53;1.50;;;1.40;;
8656;SDS011;4366;50.764;7.184;2023-05-03T23:16:55;1.43;;;1.43;;
8656;SDS011;4366;50.764;7.184;2023-05-03T23:21:58;1.30;;;1.30;;
8656;SDS011;4366;50.764;7.184;2023-05-03T23:26:59;1.43;;;1.40;;
8656;SDS011;4366;50.764;7.184;2023-05-03T23:32:02;1.60;;;1.50;;
8656;SDS011;4366;50.764;7.184;2023-05-03T23:37:04;1.50;;;1.40;;
8656;SDS011;4366;50.764;7.184;2023-05-03T23:42:06;2.10;;;1.50;;
8656;SDS011;4366;50.764;7.184;2023-05-03T23:47:07;2.37;;;1.53;;
8656;SDS011;4366;50.764;7.184;2023-05-03T23:52:09;1.70;;;1.60;;
8656;SDS011;4366;50.764;7.184;2023-05-03T23:57:11;2.40;;;1.60;;
